Sophie Blue — CRXK3 — position and weather

sailwx.info

Track history (hours):
 
Tides and Currents Weather Stations Pressure Air Temp Water Temp Dewpoint Dewpoint Depression Visibility Wind Speed Wind Dir Waves Ship Positions

Sophie Blue

Last reported at 2016-Oct-01 14:33 UTC. Time now 2016-Oct-01 15:32 UTC.
Position N 43°51' E 010°14'.

; draft 2.5 m.

Type: Other ship. MMSI: 255901270.

Date/timePositionNaut miles runAvg speedWind from/ knotsBaromVisibWave heightAir tempDewpointWater temp
2016-Oct-01 14:33N 43°51' E 010°14'0 0.0
2016-Oct-01 13:33N 43°51' E 010°14'0 0.0
2016-Oct-01 04:33N 43°51' E 010°14'0 0.0
2016-Oct-01 03:33N 43°51' E 010°14'0 0.0
2016-Oct-01 00:33N 43°51' E 010°14'0 0.0
2016-Sep-30 22:33N 43°51' E 010°14'0 0.0
2016-Sep-30 20:33N 43°51' E 010°14'0 0.0
2016-Sep-30 17:30N 43°51' E 010°14'0 0.0
2016-Sep-30 16:33N 43°51' E 010°14'0 0.0
2016-Sep-30 14:33N 43°51' E 010°14'0 0.0
2016-Sep-30 13:30N 43°51' E 010°14'0 0.0
2016-Sep-30 10:33N 43°51' E 010°14'0 0.0
2016-Sep-30 08:33N 43°51' E 010°14'0 0.0
2016-Sep-30 06:33N 43°51' E 010°14'0 0.0
2016-Sep-30 03:30N 43°51' E 010°14'0 0.0
2016-Sep-30 02:33N 43°51' E 010°14'0 0.0
2016-Sep-29 23:33N 43°51' E 010°14'0 0.0
2016-Sep-29 21:33N 43°51' E 010°14'0 0.0
2016-Sep-29 20:30N 43°51' E 010°14'0 0.0
2016-Sep-29 19:33N 43°51' E 010°14'0 0.0
2016-Sep-29 16:33N 43°51' E 010°14'0 0.0
2016-Sep-29 15:33N 43°51' E 010°14'0 0.0
2016-Sep-29 14:30N 43°51' E 010°14'0 0.0
2016-Sep-29 13:33N 43°51' E 010°14'0 0.0
2016-Sep-29 08:33N 43°51' E 010°14'0 0.1
2016-Sep-29 07:33N 43°51' E 010°14'10410.4
2016-Sep-28 21:33N 43°47' E 007°51'18 3.3
2016-Sep-28 16:14N 43°44' E 007°26'0 0.0
2016-Sep-28 02:23N 43°44' E 007°26'0 0.0
2016-Sep-28 01:29N 43°44' E 007°26'0 0.0
2016-Sep-27 23:29N 43°44' E 007°26'0 0.0
2016-Sep-27 00:29N 43°44' E 007°26'0 0.0
2016-Sep-26 19:29N 43°44' E 007°26'0 0.0
2016-Sep-26 13:08N 43°44' E 007°26'3 0.7
2016-Sep-26 08:32N 43°42' E 007°24'1 0.0
2016-Sep-24 16:29N 43°43' E 007°25'3 1.7
2016-Sep-24 14:28N 43°42' E 007°20'0 0.0
2016-Sep-24 12:28N 43°42' E 007°20'5 0.1
2016-Sep-23 03:09N 43°44' E 007°26'0 0.0
2016-Sep-22 23:33N 43°44' E 007°26'  
Track history (hours):
 
Tides and Currents Weather Stations Pressure Air Temp Water Temp Dewpoint Dewpoint Depression Visibility Wind Speed Wind Dir Waves Ship Positions

Sophie Blue

Last reported at 2016-Oct-01 14:33 UTC. Time now 2016-Oct-01 15:32 UTC.
Position N 43°51' E 010°14'.

; draft 2.5 m.

Type: Other ship. MMSI: 255901270.

Date/timePositionNaut miles runAvg speedWind from/ knotsBaromVisibWave heightAir tempDewpointWater temp
2016-Oct-01 14:33N 43°51' E 010°14'0 0.0
2016-Oct-01 13:33N 43°51' E 010°14'0 0.0
2016-Oct-01 04:33N 43°51' E 010°14'0 0.0
2016-Oct-01 03:33N 43°51' E 010°14'0 0.0
2016-Oct-01 00:33N 43°51' E 010°14'0 0.0
2016-Sep-30 22:33N 43°51' E 010°14'0 0.0
2016-Sep-30 20:33N 43°51' E 010°14'0 0.0
2016-Sep-30 17:30N 43°51' E 010°14'0 0.0
2016-Sep-30 16:33N 43°51' E 010°14'0 0.0
2016-Sep-30 14:33N 43°51' E 010°14'0 0.0
2016-Sep-30 13:30N 43°51' E 010°14'0 0.0
2016-Sep-30 10:33N 43°51' E 010°14'0 0.0
2016-Sep-30 08:33N 43°51' E 010°14'0 0.0
2016-Sep-30 06:33N 43°51' E 010°14'0 0.0
2016-Sep-30 03:30N 43°51' E 010°14'0 0.0
2016-Sep-30 02:33N 43°51' E 010°14'0 0.0
2016-Sep-29 23:33N 43°51' E 010°14'0 0.0
2016-Sep-29 21:33N 43°51' E 010°14'0 0.0
2016-Sep-29 20:30N 43°51' E 010°14'0 0.0
2016-Sep-29 19:33N 43°51' E 010°14'0 0.0
2016-Sep-29 16:33N 43°51' E 010°14'0 0.0
2016-Sep-29 15:33N 43°51' E 010°14'0 0.0
2016-Sep-29 14:30N 43°51' E 010°14'0 0.0
2016-Sep-29 13:33N 43°51' E 010°14'0 0.0
2016-Sep-29 08:33N 43°51' E 010°14'0 0.1
2016-Sep-29 07:33N 43°51' E 010°14'10410.4
2016-Sep-28 21:33N 43°47' E 007°51'18 3.3
2016-Sep-28 16:14N 43°44' E 007°26'0 0.0
2016-Sep-28 02:23N 43°44' E 007°26'0 0.0
2016-Sep-28 01:29N 43°44' E 007°26'0 0.0
2016-Sep-27 23:29N 43°44' E 007°26'0 0.0
2016-Sep-27 00:29N 43°44' E 007°26'0 0.0
2016-Sep-26 19:29N 43°44' E 007°26'0 0.0
2016-Sep-26 13:08N 43°44' E 007°26'3 0.7
2016-Sep-26 08:32N 43°42' E 007°24'1 0.0
2016-Sep-24 16:29N 43°43' E 007°25'3 1.7
2016-Sep-24 14:28N 43°42' E 007°20'0 0.0
2016-Sep-24 12:28N 43°42' E 007°20'5 0.1
2016-Sep-23 03:09N 43°44' E 007°26'0 0.0
2016-Sep-22 23:33N 43°44' E 007°26'  

Dump ship's entire track history